sensor_id;sensor_type;location;lat;lon;timestamp;P1;durP1;ratioP1;P2;durP2;ratioP2
39620;SDS011;25309;48.686;9.170;2023-07-28T00:01:49;3.63;;;2.27;;
39620;SDS011;25309;48.686;9.170;2023-07-28T00:04:16;4.13;;;2.20;;
39620;SDS011;25309;48.686;9.170;2023-07-28T00:06:43;3.70;;;2.50;;
39620;SDS011;25309;48.686;9.170;2023-07-28T00:09:10;2.67;;;2.17;;
39620;SDS011;25309;48.686;9.170;2023-07-28T00:11:38;3.00;;;2.30;;
39620;SDS011;25309;48.686;9.170;2023-07-28T00:14:05;3.00;;;2.50;;
39620;SDS011;25309;48.686;9.170;2023-07-28T00:16:32;2.70;;;2.37;;
39620;SDS011;25309;48.686;9.170;2023-07-28T00:18:59;2.63;;;2.20;;
39620;SDS011;25309;48.686;9.170;2023-07-28T00:21:26;2.80;;;2.40;;
39620;SDS011;25309;48.686;9.170;2023-07-28T00:23:53;4.60;;;2.50;;
39620;SDS011;25309;48.686;9.170;2023-07-28T00:26:20;2.40;;;2.13;;
39620;SDS011;25309;48.686;9.170;2023-07-28T00:28:48;2.77;;;2.20;;
39620;SDS011;25309;48.686;9.170;2023-07-28T00:31:15;4.07;;;2.13;;
39620;SDS011;25309;48.686;9.170;2023-07-28T00:33:42;3.97;;;2.73;;
39620;SDS011;25309;48.686;9.170;2023-07-28T00:36:09;2.70;;;2.30;;
39620;SDS011;25309;48.686;9.170;2023-07-28T00:38:36;2.60;;;2.40;;
39620;SDS011;25309;48.686;9.170;2023-07-28T00:41:03;4.23;;;2.50;;
39620;SDS011;25309;48.686;9.170;2023-07-28T00:43:30;4.43;;;2.60;;
39620;SDS011;25309;48.686;9.170;2023-07-28T00:45:59;3.20;;;2.30;;
39620;SDS011;25309;48.686;9.170;2023-07-28T00:48:26;2.30;;;1.80;;
39620;SDS011;25309;48.686;9.170;2023-07-28T00:50:53;2.83;;;2.10;;
39620;SDS011;25309;48.686;9.170;2023-07-28T00:53:21;2.80;;;2.10;;
39620;SDS011;25309;48.686;9.170;2023-07-28T00:55:49;2.93;;;2.20;;
39620;SDS011;25309;48.686;9.170;2023-07-28T00:58:18;2.87;;;2.30;;
39620;SDS011;25309;48.686;9.170;2023-07-28T01:00:45;2.97;;;2.33;;
39620;SDS011;25309;48.686;9.170;2023-07-28T01:03:14;2.80;;;2.20;;
39620;SDS011;25309;48.686;9.170;2023-07-28T01:05:44;3.40;;;2.23;;
39620;SDS011;25309;48.686;9.170;2023-07-28T01:08:23;2.90;;;2.30;;
39620;SDS011;25309;48.686;9.170;2023-07-28T01:10:56;2.83;;;2.30;;
39620;SDS011;25309;48.686;9.170;2023-07-28T01:13:23;3.00;;;2.20;;
39620;SDS011;25309;48.686;9.170;2023-07-28T01:15:50;3.60;;;2.30;;
39620;SDS011;25309;48.686;9.170;2023-07-28T01:18:18;3.43;;;2.17;;
39620;SDS011;25309;48.686;9.170;2023-07-28T01:20:45;2.93;;;2.03;;
39620;SDS011;25309;48.686;9.170;2023-07-28T01:23:16;3.87;;;2.07;;
39620;SDS011;25309;48.686;9.170;2023-07-28T01:25:49;4.60;;;2.67;;
39620;SDS011;25309;48.686;9.170;2023-07-28T01:28:25;3.80;;;2.33;;
39620;SDS011;25309;48.686;9.170;2023-07-28T01:30:53;3.50;;;2.40;;
39620;SDS011;25309;48.686;9.170;2023-07-28T01:33:20;3.63;;;2.27;;
39620;SDS011;25309;48.686;9.170;2023-07-28T01:35:47;2.93;;;2.40;;
39620;SDS011;25309;48.686;9.170;2023-07-28T01:38:14;2.90;;;2.30;;
39620;SDS011;25309;48.686;9.170;2023-07-28T01:40:42;4.30;;;2.50;;
39620;SDS011;25309;48.686;9.170;2023-07-28T01:43:09;3.67;;;2.50;;
39620;SDS011;25309;48.686;9.170;2023-07-28T01:45:37;3.47;;;2.30;;
39620;SDS011;25309;48.686;9.170;2023-07-28T01:48:05;2.67;;;2.27;;
39620;SDS011;25309;48.686;9.170;2023-07-28T01:50:32;3.17;;;2.30;;
39620;SDS011;25309;48.686;9.170;2023-07-28T01:52:59;4.07;;;2.20;;
39620;SDS011;25309;48.686;9.170;2023-07-28T01:55:26;3.83;;;2.50;;
39620;SDS011;25309;48.686;9.170;2023-07-28T01:57:55;2.80;;;2.23;;
39620;SDS011;25309;48.686;9.170;2023-07-28T02:00:22;2.40;;;2.20;;
39620;SDS011;25309;48.686;9.170;2023-07-28T02:02:51;3.47;;;2.33;;
39620;SDS011;25309;48.686;9.170;2023-07-28T02:05:19;2.97;;;2.40;;
39620;SDS011;25309;48.686;9.170;2023-07-28T02:07:47;3.20;;;2.00;;
39620;SDS011;25309;48.686;9.170;2023-07-28T02:10:14;2.63;;;2.13;;
39620;SDS011;25309;48.686;9.170;2023-07-28T02:12:41;3.33;;;2.60;;
39620;SDS011;25309;48.686;9.170;2023-07-28T02:15:08;3.33;;;2.27;;
39620;SDS011;25309;48.686;9.170;2023-07-28T02:17:35;3.93;;;2.40;;
39620;SDS011;25309;48.686;9.170;2023-07-28T02:20:05;2.80;;;2.30;;
39620;SDS011;25309;48.686;9.170;2023-07-28T02:22:32;2.83;;;2.37;;
39620;SDS011;25309;48.686;9.170;2023-07-28T02:24:59;3.87;;;2.60;;
39620;SDS011;25309;48.686;9.170;2023-07-28T02:27:28;2.50;;;2.30;;
39620;SDS011;25309;48.686;9.170;2023-07-28T02:29:55;3.43;;;2.40;;
39620;SDS011;25309;48.686;9.170;2023-07-28T02:32:22;3.83;;;2.50;;
39620;SDS011;25309;48.686;9.170;2023-07-28T02:34:49;4.23;;;2.50;;
39620;SDS011;25309;48.686;9.170;2023-07-28T02:37:18;3.57;;;2.10;;
39620;SDS011;25309;48.686;9.170;2023-07-28T02:39:45;3.07;;;2.43;;
39620;SDS011;25309;48.686;9.170;2023-07-28T02:42:13;2.93;;;2.20;;
39620;SDS011;25309;48.686;9.170;2023-07-28T02:44:40;2.90;;;2.60;;
39620;SDS011;25309;48.686;9.170;2023-07-28T02:47:07;2.80;;;2.33;;
39620;SDS011;25309;48.686;9.170;2023-07-28T02:49:34;2.90;;;2.23;;
39620;SDS011;25309;48.686;9.170;2023-07-28T02:52:01;3.17;;;2.43;;
39620;SDS011;25309;48.686;9.170;2023-07-28T02:54:30;4.70;;;2.57;;
39620;SDS011;25309;48.686;9.170;2023-07-28T02:56:58;2.33;;;2.10;;
39620;SDS011;25309;48.686;9.170;2023-07-28T02:59:25;3.83;;;2.33;;
39620;SDS011;25309;48.686;9.170;2023-07-28T03:01:53;2.90;;;2.53;;
39620;SDS011;25309;48.686;9.170;2023-07-28T03:04:20;3.37;;;2.47;;
39620;SDS011;25309;48.686;9.170;2023-07-28T03:07:23;2.90;;;2.50;;
39620;SDS011;25309;48.686;9.170;2023-07-28T03:09:58;3.30;;;2.30;;
39620;SDS011;25309;48.686;9.170;2023-07-28T03:12:25;5.17;;;2.53;;
39620;SDS011;25309;48.686;9.170;2023-07-28T03:14:52;4.53;;;2.43;;
39620;SDS011;25309;48.686;9.170;2023-07-28T03:17:19;3.40;;;2.37;;
39620;SDS011;25309;48.686;9.170;2023-07-28T03:19:46;2.40;;;2.20;;
39620;SDS011;25309;48.686;9.170;2023-07-28T03:22:13;2.80;;;2.30;;
39620;SDS011;25309;48.686;9.170;2023-07-28T03:24:40;3.53;;;2.07;;
39620;SDS011;25309;48.686;9.170;2023-07-28T03:27:09;3.80;;;2.30;;
39620;SDS011;25309;48.686;9.170;2023-07-28T03:29:36;3.33;;;2.40;;
39620;SDS011;25309;48.686;9.170;2023-07-28T03:32:04;2.80;;;2.20;;
39620;SDS011;25309;48.686;9.170;2023-07-28T03:34:32;2.87;;;2.33;;
39620;SDS011;25309;48.686;9.170;2023-07-28T03:37:01;2.43;;;1.90;;
39620;SDS011;25309;48.686;9.170;2023-07-28T03:39:28;2.77;;;2.10;;
39620;SDS011;25309;48.686;9.170;2023-07-28T03:41:56;3.23;;;2.30;;
39620;SDS011;25309;48.686;9.170;2023-07-28T03:44:24;2.93;;;2.40;;
39620;SDS011;25309;48.686;9.170;2023-07-28T03:46:51;3.47;;;2.40;;
39620;SDS011;25309;48.686;9.170;2023-07-28T03:49:18;3.40;;;2.20;;
39620;SDS011;25309;48.686;9.170;2023-07-28T03:51:46;3.00;;;2.40;;
39620;SDS011;25309;48.686;9.170;2023-07-28T03:54:13;2.87;;;2.37;;
39620;SDS011;25309;48.686;9.170;2023-07-28T03:56:40;3.80;;;2.20;;
39620;SDS011;25309;48.686;9.170;2023-07-28T03:59:06;4.07;;;2.27;;
39620;SDS011;25309;48.686;9.170;2023-07-28T04:01:35;3.93;;;2.53;;
39620;SDS011;25309;48.686;9.170;2023-07-28T04:04:02;3.93;;;2.33;;
39620;SDS011;25309;48.686;9.170;2023-07-28T04:06:40;3.80;;;2.17;;
39620;SDS011;25309;48.686;9.170;2023-07-28T04:09:11;2.67;;;2.10;;
39620;SDS011;25309;48.686;9.170;2023-07-28T04:11:39;4.07;;;2.57;;
39620;SDS011;25309;48.686;9.170;2023-07-28T04:14:06;4.80;;;2.40;;
39620;SDS011;25309;48.686;9.170;2023-07-28T04:16:34;3.13;;;2.37;;
39620;SDS011;25309;48.686;9.170;2023-07-28T04:19:02;3.40;;;2.27;;
39620;SDS011;25309;48.686;9.170;2023-07-28T04:21:29;3.40;;;2.27;;
39620;SDS011;25309;48.686;9.170;2023-07-28T04:23:56;4.67;;;2.73;;
39620;SDS011;25309;48.686;9.170;2023-07-28T04:26:23;2.93;;;2.17;;
39620;SDS011;25309;48.686;9.170;2023-07-28T04:28:57;2.90;;;2.60;;
39620;SDS011;25309;48.686;9.170;2023-07-28T04:31:24;3.00;;;2.20;;
39620;SDS011;25309;48.686;9.170;2023-07-28T04:33:56;3.93;;;2.17;;
39620;SDS011;25309;48.686;9.170;2023-07-28T04:36:30;2.10;;;1.90;;
39620;SDS011;25309;48.686;9.170;2023-07-28T04:38:58;3.07;;;2.57;;
39620;SDS011;25309;48.686;9.170;2023-07-28T04:41:25;4.60;;;2.47;;
39620;SDS011;25309;48.686;9.170;2023-07-28T04:43:52;3.57;;;2.33;;
39620;SDS011;25309;48.686;9.170;2023-07-28T04:46:22;3.90;;;2.37;;
39620;SDS011;25309;48.686;9.170;2023-07-28T04:48:53;2.93;;;2.27;;
39620;SDS011;25309;48.686;9.170;2023-07-28T04:51:41;3.13;;;2.50;;
39620;SDS011;25309;48.686;9.170;2023-07-28T04:54:34;4.37;;;2.50;;
39620;SDS011;25309;48.686;9.170;2023-07-28T04:57:04;3.60;;;2.77;;
39620;SDS011;25309;48.686;9.170;2023-07-28T04:59:33;3.37;;;2.60;;
39620;SDS011;25309;48.686;9.170;2023-07-28T05:02:00;3.33;;;2.40;;
39620;SDS011;25309;48.686;9.170;2023-07-28T05:04:27;5.37;;;2.67;;
39620;SDS011;25309;48.686;9.170;2023-07-28T05:06:55;3.20;;;2.43;;
39620;SDS011;25309;48.686;9.170;2023-07-28T05:09:22;4.73;;;2.83;;
39620;SDS011;25309;48.686;9.170;2023-07-28T05:11:49;3.33;;;2.60;;
39620;SDS011;25309;48.686;9.170;2023-07-28T05:14:16;3.13;;;2.40;;
39620;SDS011;25309;48.686;9.170;2023-07-28T05:16:43;3.57;;;2.70;;
39620;SDS011;25309;48.686;9.170;2023-07-28T05:19:11;3.97;;;2.77;;
39620;SDS011;25309;48.686;9.170;2023-07-28T05:21:58;5.10;;;2.60;;
39620;SDS011;25309;48.686;9.170;2023-07-28T05:24:34;2.93;;;2.53;;
39620;SDS011;25309;48.686;9.170;2023-07-28T05:27:01;3.70;;;2.80;;
39620;SDS011;25309;48.686;9.170;2023-07-28T05:29:28;2.93;;;2.43;;
39620;SDS011;25309;48.686;9.170;2023-07-28T05:32:01;5.30;;;2.80;;
39620;SDS011;25309;48.686;9.170;2023-07-28T05:34:35;3.30;;;2.63;;
39620;SDS011;25309;48.686;9.170;2023-07-28T05:37:03;3.50;;;2.60;;
39620;SDS011;25309;48.686;9.170;2023-07-28T05:39:32;3.10;;;2.67;;
39620;SDS011;25309;48.686;9.170;2023-07-28T05:41:59;7.33;;;3.00;;
39620;SDS011;25309;48.686;9.170;2023-07-28T05:44:26;7.77;;;3.77;;
39620;SDS011;25309;48.686;9.170;2023-07-28T05:46:54;7.03;;;3.80;;
39620;SDS011;25309;48.686;9.170;2023-07-28T05:49:21;10.00;;;3.70;;
39620;SDS011;25309;48.686;9.170;2023-07-28T05:51:48;6.53;;;3.47;;
39620;SDS011;25309;48.686;9.170;2023-07-28T05:54:16;6.40;;;3.93;;
39620;SDS011;25309;48.686;9.170;2023-07-28T05:56:44;5.20;;;3.40;;
39620;SDS011;25309;48.686;9.170;2023-07-28T05:59:11;6.40;;;3.10;;
39620;SDS011;25309;48.686;9.170;2023-07-28T06:01:37;7.47;;;3.10;;
39620;SDS011;25309;48.686;9.170;2023-07-28T06:04:29;3.37;;;2.80;;
39620;SDS011;25309;48.686;9.170;2023-07-28T06:06:58;4.43;;;2.97;;
39620;SDS011;25309;48.686;9.170;2023-07-28T06:09:26;4.80;;;3.00;;
39620;SDS011;25309;48.686;9.170;2023-07-28T06:11:53;5.50;;;3.37;;
39620;SDS011;25309;48.686;9.170;2023-07-28T06:14:23;4.00;;;2.97;;
39620;SDS011;25309;48.686;9.170;2023-07-28T06:16:52;4.63;;;3.20;;
39620;SDS011;25309;48.686;9.170;2023-07-28T06:19:20;4.43;;;2.87;;
39620;SDS011;25309;48.686;9.170;2023-07-28T06:21:51;4.90;;;3.20;;
39620;SDS011;25309;48.686;9.170;2023-07-28T06:24:18;5.03;;;3.20;;
39620;SDS011;25309;48.686;9.170;2023-07-28T06:26:47;4.87;;;3.60;;
39620;SDS011;25309;48.686;9.170;2023-07-28T06:29:14;6.53;;;3.43;;
39620;SDS011;25309;48.686;9.170;2023-07-28T06:31:41;6.23;;;3.53;;
39620;SDS011;25309;48.686;9.170;2023-07-28T06:34:08;5.50;;;3.50;;
39620;SDS011;25309;48.686;9.170;2023-07-28T06:36:35;5.30;;;3.23;;
39620;SDS011;25309;48.686;9.170;2023-07-28T06:39:02;5.70;;;3.20;;
39620;SDS011;25309;48.686;9.170;2023-07-28T06:41:30;4.00;;;3.00;;
39620;SDS011;25309;48.686;9.170;2023-07-28T06:44:01;3.63;;;2.83;;
39620;SDS011;25309;48.686;9.170;2023-07-28T06:46:28;5.07;;;3.20;;
39620;SDS011;25309;48.686;9.170;2023-07-28T06:48:56;4.00;;;2.77;;
39620;SDS011;25309;48.686;9.170;2023-07-28T06:51:23;4.03;;;3.07;;
39620;SDS011;25309;48.686;9.170;2023-07-28T06:53:50;3.37;;;2.80;;
39620;SDS011;25309;48.686;9.170;2023-07-28T06:56:17;3.27;;;2.90;;
39620;SDS011;25309;48.686;9.170;2023-07-28T06:58:44;3.87;;;3.20;;
39620;SDS011;25309;48.686;9.170;2023-07-28T07:01:27;3.60;;;2.87;;
39620;SDS011;25309;48.686;9.170;2023-07-28T07:03:54;4.03;;;3.00;;
39620;SDS011;25309;48.686;9.170;2023-07-28T07:06:22;5.20;;;3.13;;
39620;SDS011;25309;48.686;9.170;2023-07-28T07:08:49;4.10;;;2.60;;
39620;SDS011;25309;48.686;9.170;2023-07-28T07:11:16;3.90;;;2.97;;
39620;SDS011;25309;48.686;9.170;2023-07-28T07:13:42;4.00;;;2.73;;
39620;SDS011;25309;48.686;9.170;2023-07-28T07:16:13;3.10;;;2.53;;
39620;SDS011;25309;48.686;9.170;2023-07-28T07:18:51;4.00;;;2.60;;
39620;SDS011;25309;48.686;9.170;2023-07-28T07:21:19;3.50;;;2.70;;
39620;SDS011;25309;48.686;9.170;2023-07-28T07:23:46;3.70;;;2.73;;
39620;SDS011;25309;48.686;9.170;2023-07-28T07:26:26;3.50;;;2.80;;
39620;SDS011;25309;48.686;9.170;2023-07-28T07:28:53;4.33;;;2.80;;
39620;SDS011;25309;48.686;9.170;2023-07-28T07:31:20;4.00;;;2.90;;
39620;SDS011;25309;48.686;9.170;2023-07-28T07:33:47;4.17;;;2.90;;
39620;SDS011;25309;48.686;9.170;2023-07-28T07:36:16;4.20;;;2.70;;
39620;SDS011;25309;48.686;9.170;2023-07-28T07:38:43;4.87;;;2.90;;
39620;SDS011;25309;48.686;9.170;2023-07-28T07:41:15;3.80;;;2.87;;
39620;SDS011;25309;48.686;9.170;2023-07-28T07:43:46;4.53;;;2.77;;
39620;SDS011;25309;48.686;9.170;2023-07-28T07:46:13;3.63;;;2.70;;
39620;SDS011;25309;48.686;9.170;2023-07-28T07:48:41;3.23;;;2.53;;
39620;SDS011;25309;48.686;9.170;2023-07-28T07:51:08;3.90;;;3.00;;
39620;SDS011;25309;48.686;9.170;2023-07-28T07:53:37;3.63;;;2.50;;
39620;SDS011;25309;48.686;9.170;2023-07-28T07:56:04;3.30;;;2.70;;
39620;SDS011;25309;48.686;9.170;2023-07-28T07:58:32;4.37;;;2.90;;
39620;SDS011;25309;48.686;9.170;2023-07-28T08:00:59;4.47;;;2.53;;
39620;SDS011;25309;48.686;9.170;2023-07-28T08:03:26;5.57;;;2.97;;
39620;SDS011;25309;48.686;9.170;2023-07-28T08:05:54;3.13;;;2.40;;
39620;SDS011;25309;48.686;9.170;2023-07-28T08:08:21;5.47;;;2.60;;
39620;SDS011;25309;48.686;9.170;2023-07-28T08:10:49;3.30;;;2.60;;
39620;SDS011;25309;48.686;9.170;2023-07-28T08:13:16;3.43;;;2.33;;
39620;SDS011;25309;48.686;9.170;2023-07-28T08:15:43;2.83;;;2.60;;
39620;SDS011;25309;48.686;9.170;2023-07-28T08:18:11;3.30;;;2.30;;
39620;SDS011;25309;48.686;9.170;2023-07-28T08:20:38;4.60;;;2.47;;
39620;SDS011;25309;48.686;9.170;2023-07-28T08:23:06;3.20;;;2.50;;
39620;SDS011;25309;48.686;9.170;2023-07-28T08:25:34;2.97;;;2.30;;
39620;SDS011;25309;48.686;9.170;2023-07-28T08:28:02;4.63;;;2.40;;
39620;SDS011;25309;48.686;9.170;2023-07-28T08:30:30;2.17;;;1.93;;
39620;SDS011;25309;48.686;9.170;2023-07-28T08:32:58;3.07;;;2.10;;
39620;SDS011;25309;48.686;9.170;2023-07-28T08:35:25;2.87;;;2.20;;
39620;SDS011;25309;48.686;9.170;2023-07-28T08:37:52;3.23;;;2.30;;
39620;SDS011;25309;48.686;9.170;2023-07-28T08:40:19;3.10;;;2.30;;
39620;SDS011;25309;48.686;9.170;2023-07-28T08:42:46;2.63;;;2.20;;
39620;SDS011;25309;48.686;9.170;2023-07-28T08:45:17;3.30;;;2.20;;
39620;SDS011;25309;48.686;9.170;2023-07-28T08:47:45;2.23;;;1.90;;
39620;SDS011;25309;48.686;9.170;2023-07-28T08:50:12;2.70;;;2.17;;
39620;SDS011;25309;48.686;9.170;2023-07-28T08:52:39;3.27;;;2.10;;
39620;SDS011;25309;48.686;9.170;2023-07-28T08:55:06;2.70;;;2.10;;
39620;SDS011;25309;48.686;9.170;2023-07-28T08:57:34;3.37;;;2.07;;
39620;SDS011;25309;48.686;9.170;2023-07-28T09:00:06;3.57;;;2.13;;
39620;SDS011;25309;48.686;9.170;2023-07-28T09:02:36;5.27;;;2.47;;
39620;SDS011;25309;48.686;9.170;2023-07-28T09:05:04;3.67;;;2.30;;
39620;SDS011;25309;48.686;9.170;2023-07-28T09:07:34;3.13;;;2.00;;
39620;SDS011;25309;48.686;9.170;2023-07-28T09:10:02;3.73;;;2.17;;
39620;SDS011;25309;48.686;9.170;2023-07-28T09:12:30;2.87;;;2.13;;
39620;SDS011;25309;48.686;9.170;2023-07-28T09:14:58;3.73;;;2.10;;
39620;SDS011;25309;48.686;9.170;2023-07-28T09:17:25;2.60;;;2.30;;
39620;SDS011;25309;48.686;9.170;2023-07-28T09:19:54;2.83;;;2.00;;
39620;SDS011;25309;48.686;9.170;2023-07-28T09:22:22;3.00;;;2.10;;
39620;SDS011;25309;48.686;9.170;2023-07-28T09:24:50;3.50;;;2.07;;
39620;SDS011;25309;48.686;9.170;2023-07-28T09:27:21;3.67;;;2.10;;
39620;SDS011;25309;48.686;9.170;2023-07-28T09:29:49;2.17;;;1.90;;
39620;SDS011;25309;48.686;9.170;2023-07-28T09:32:18;2.63;;;2.13;;
39620;SDS011;25309;48.686;9.170;2023-07-28T09:35:06;2.40;;;1.90;;
39620;SDS011;25309;48.686;9.170;2023-07-28T09:37:38;2.40;;;1.90;;
39620;SDS011;25309;48.686;9.170;2023-07-28T09:40:07;3.13;;;2.00;;
39620;SDS011;25309;48.686;9.170;2023-07-28T09:42:39;3.00;;;1.90;;
39620;SDS011;25309;48.686;9.170;2023-07-28T09:45:06;2.50;;;2.00;;
39620;SDS011;25309;48.686;9.170;2023-07-28T09:47:56;2.67;;;1.90;;
39620;SDS011;25309;48.686;9.170;2023-07-28T09:50:27;2.70;;;2.07;;
39620;SDS011;25309;48.686;9.170;2023-07-28T09:53:00;2.90;;;1.90;;
39620;SDS011;25309;48.686;9.170;2023-07-28T09:55:29;2.27;;;1.73;;
39620;SDS011;25309;48.686;9.170;2023-07-28T09:57:57;3.07;;;1.80;;
39620;SDS011;25309;48.686;9.170;2023-07-28T10:00:27;2.10;;;1.80;;
39620;SDS011;25309;48.686;9.170;2023-07-28T10:02:55;2.30;;;1.70;;
39620;SDS011;25309;48.686;9.170;2023-07-28T10:05:23;1.73;;;1.60;;
39620;SDS011;25309;48.686;9.170;2023-07-28T10:07:52;2.63;;;1.73;;
39620;SDS011;25309;48.686;9.170;2023-07-28T10:10:20;2.97;;;1.67;;
39620;SDS011;25309;48.686;9.170;2023-07-28T10:12:48;1.90;;;1.70;;
39620;SDS011;25309;48.686;9.170;2023-07-28T10:15:17;1.90;;;1.50;;
39620;SDS011;25309;48.686;9.170;2023-07-28T10:17:46;1.70;;;1.60;;
39620;SDS011;25309;48.686;9.170;2023-07-28T10:20:29;2.60;;;1.70;;
39620;SDS011;25309;48.686;9.170;2023-07-28T10:23:05;3.13;;;1.63;;
39620;SDS011;25309;48.686;9.170;2023-07-28T10:25:34;1.80;;;1.60;;
39620;SDS011;25309;48.686;9.170;2023-07-28T10:28:02;1.93;;;1.67;;
39620;SDS011;25309;48.686;9.170;2023-07-28T10:30:37;2.10;;;1.73;;
39620;SDS011;25309;48.686;9.170;2023-07-28T10:33:26;2.23;;;1.67;;
39620;SDS011;25309;48.686;9.170;2023-07-28T10:35:54;2.10;;;1.30;;
39620;SDS011;25309;48.686;9.170;2023-07-28T10:38:34;1.93;;;1.60;;
39620;SDS011;25309;48.686;9.170;2023-07-28T10:41:06;2.07;;;1.60;;
39620;SDS011;25309;48.686;9.170;2023-07-28T10:43:34;2.00;;;1.57;;
39620;SDS011;25309;48.686;9.170;2023-07-28T10:46:01;2.00;;;1.70;;
39620;SDS011;25309;48.686;9.170;2023-07-28T10:48:30;2.03;;;1.70;;
39620;SDS011;25309;48.686;9.170;2023-07-28T10:50:57;2.40;;;1.50;;
39620;SDS011;25309;48.686;9.170;2023-07-28T10:53:24;2.10;;;1.70;;
39620;SDS011;25309;48.686;9.170;2023-07-28T10:55:52;2.40;;;1.60;;
39620;SDS011;25309;48.686;9.170;2023-07-28T10:58:19;1.87;;;1.63;;
39620;SDS011;25309;48.686;9.170;2023-07-28T11:00:46;3.70;;;1.87;;
39620;SDS011;25309;48.686;9.170;2023-07-28T11:03:13;2.60;;;1.80;;
39620;SDS011;25309;48.686;9.170;2023-07-28T11:05:40;2.27;;;1.70;;
39620;SDS011;25309;48.686;9.170;2023-07-28T11:08:08;2.33;;;1.73;;
39620;SDS011;25309;48.686;9.170;2023-07-28T11:10:36;2.77;;;1.70;;
39620;SDS011;25309;48.686;9.170;2023-07-28T11:13:05;2.03;;;1.63;;
39620;SDS011;25309;48.686;9.170;2023-07-28T11:15:52;2.77;;;1.90;;
39620;SDS011;25309;48.686;9.170;2023-07-28T11:18:19;2.50;;;1.90;;
39620;SDS011;25309;48.686;9.170;2023-07-28T11:20:47;3.23;;;2.07;;
39620;SDS011;25309;48.686;9.170;2023-07-28T11:23:15;2.47;;;1.70;;
39620;SDS011;25309;48.686;9.170;2023-07-28T11:25:44;2.40;;;2.10;;
39620;SDS011;25309;48.686;9.170;2023-07-28T11:28:12;2.63;;;2.20;;
39620;SDS011;25309;48.686;9.170;2023-07-28T11:30:39;3.37;;;2.17;;
39620;SDS011;25309;48.686;9.170;2023-07-28T11:33:09;2.67;;;1.70;;
39620;SDS011;25309;48.686;9.170;2023-07-28T11:35:37;2.43;;;1.80;;
39620;SDS011;25309;48.686;9.170;2023-07-28T11:38:06;2.90;;;2.10;;
39620;SDS011;25309;48.686;9.170;2023-07-28T11:40:34;1.97;;;1.77;;
39620;SDS011;25309;48.686;9.170;2023-07-28T11:43:02;3.70;;;2.20;;
39620;SDS011;25309;48.686;9.170;2023-07-28T11:45:31;2.30;;;2.00;;
39620;SDS011;25309;48.686;9.170;2023-07-28T11:47:59;2.77;;;2.17;;
39620;SDS011;25309;48.686;9.170;2023-07-28T11:50:29;3.23;;;2.10;;
39620;SDS011;25309;48.686;9.170;2023-07-28T11:53:00;2.83;;;2.13;;
39620;SDS011;25309;48.686;9.170;2023-07-28T11:55:27;3.53;;;2.50;;
39620;SDS011;25309;48.686;9.170;2023-07-28T11:57:55;3.30;;;2.30;;
39620;SDS011;25309;48.686;9.170;2023-07-28T12:00:24;3.53;;;2.13;;
39620;SDS011;25309;48.686;9.170;2023-07-28T12:03:03;3.17;;;2.30;;
39620;SDS011;25309;48.686;9.170;2023-07-28T12:05:31;3.30;;;2.50;;
39620;SDS011;25309;48.686;9.170;2023-07-28T12:11:02;2.80;;;2.27;;
39620;SDS011;25309;48.686;9.170;2023-07-28T12:13:32;2.97;;;2.50;;
39620;SDS011;25309;48.686;9.170;2023-07-28T12:15:59;4.43;;;2.47;;
39620;SDS011;25309;48.686;9.170;2023-07-28T12:18:30;3.73;;;2.53;;
39620;SDS011;25309;48.686;9.170;2023-07-28T12:21:00;3.23;;;2.50;;
39620;SDS011;25309;48.686;9.170;2023-07-28T12:23:28;2.87;;;2.30;;
39620;SDS011;25309;48.686;9.170;2023-07-28T12:25:58;3.53;;;2.30;;
39620;SDS011;25309;48.686;9.170;2023-07-28T12:28:26;3.27;;;2.43;;
39620;SDS011;25309;48.686;9.170;2023-07-28T12:30:53;2.67;;;2.30;;
39620;SDS011;25309;48.686;9.170;2023-07-28T12:33:22;2.53;;;2.23;;
39620;SDS011;25309;48.686;9.170;2023-07-28T12:36:05;3.00;;;2.30;;
39620;SDS011;25309;48.686;9.170;2023-07-28T12:38:35;3.60;;;2.50;;
39620;SDS011;25309;48.686;9.170;2023-07-28T12:41:05;3.77;;;2.27;;
39620;SDS011;25309;48.686;9.170;2023-07-28T12:43:35;3.43;;;2.50;;
39620;SDS011;25309;48.686;9.170;2023-07-28T12:46:05;5.40;;;2.47;;
39620;SDS011;25309;48.686;9.170;2023-07-28T12:48:35;3.47;;;2.47;;
39620;SDS011;25309;48.686;9.170;2023-07-28T12:51:15;3.80;;;2.60;;
39620;SDS011;25309;48.686;9.170;2023-07-28T12:53:56;2.57;;;2.10;;
39620;SDS011;25309;48.686;9.170;2023-07-28T12:56:23;3.87;;;2.33;;
39620;SDS011;25309;48.686;9.170;2023-07-28T12:58:53;2.80;;;2.20;;
39620;SDS011;25309;48.686;9.170;2023-07-28T13:01:23;3.33;;;2.40;;
39620;SDS011;25309;48.686;9.170;2023-07-28T13:03:50;3.63;;;2.47;;
39620;SDS011;25309;48.686;9.170;2023-07-28T13:06:18;2.60;;;2.40;;
39620;SDS011;25309;48.686;9.170;2023-07-28T13:08:45;2.90;;;2.37;;
39620;SDS011;25309;48.686;9.170;2023-07-28T13:11:15;3.17;;;2.30;;
39620;SDS011;25309;48.686;9.170;2023-07-28T13:13:43;3.73;;;2.53;;
39620;SDS011;25309;48.686;9.170;2023-07-28T13:16:10;3.10;;;2.50;;
39620;SDS011;25309;48.686;9.170;2023-07-28T13:18:38;3.17;;;2.47;;
39620;SDS011;25309;48.686;9.170;2023-07-28T13:21:06;3.20;;;2.47;;
39620;SDS011;25309;48.686;9.170;2023-07-28T13:23:34;4.37;;;2.53;;
39620;SDS011;25309;48.686;9.170;2023-07-28T13:26:01;3.57;;;2.50;;
39620;SDS011;25309;48.686;9.170;2023-07-28T13:28:30;3.83;;;2.63;;
39620;SDS011;25309;48.686;9.170;2023-07-28T13:30:57;3.40;;;2.50;;
39620;SDS011;25309;48.686;9.170;2023-07-28T13:33:24;3.20;;;2.80;;
39620;SDS011;25309;48.686;9.170;2023-07-28T13:35:51;3.40;;;2.87;;
39620;SDS011;25309;48.686;9.170;2023-07-28T13:38:18;3.30;;;2.40;;
39620;SDS011;25309;48.686;9.170;2023-07-28T13:40:47;4.23;;;2.50;;
39620;SDS011;25309;48.686;9.170;2023-07-28T13:43:14;3.73;;;2.70;;
39620;SDS011;25309;48.686;9.170;2023-07-28T13:45:43;4.67;;;3.07;;
39620;SDS011;25309;48.686;9.170;2023-07-28T13:48:10;3.13;;;2.50;;
39620;SDS011;25309;48.686;9.170;2023-07-28T13:50:51;3.90;;;2.80;;
39620;SDS011;25309;48.686;9.170;2023-07-28T13:53:22;4.00;;;2.83;;
39620;SDS011;25309;48.686;9.170;2023-07-28T13:55:53;4.87;;;3.03;;
39620;SDS011;25309;48.686;9.170;2023-07-28T13:58:23;3.93;;;2.97;;
39620;SDS011;25309;48.686;9.170;2023-07-28T14:00:51;3.53;;;2.83;;
39620;SDS011;25309;48.686;9.170;2023-07-28T14:03:18;3.73;;;2.80;;
39620;SDS011;25309;48.686;9.170;2023-07-28T14:05:45;4.90;;;3.10;;
39620;SDS011;25309;48.686;9.170;2023-07-28T14:08:13;4.57;;;3.10;;
39620;SDS011;25309;48.686;9.170;2023-07-28T14:10:43;4.63;;;3.40;;
39620;SDS011;25309;48.686;9.170;2023-07-28T14:13:11;5.77;;;3.40;;
39620;SDS011;25309;48.686;9.170;2023-07-28T14:15:39;5.27;;;3.43;;
39620;SDS011;25309;48.686;9.170;2023-07-28T14:18:07;5.40;;;3.00;;
39620;SDS011;25309;48.686;9.170;2023-07-28T14:20:34;4.43;;;3.10;;
39620;SDS011;25309;48.686;9.170;2023-07-28T14:23:01;6.20;;;3.23;;
39620;SDS011;25309;48.686;9.170;2023-07-28T14:25:45;6.00;;;3.40;;
39620;SDS011;25309;48.686;9.170;2023-07-28T14:28:14;4.00;;;2.80;;
39620;SDS011;25309;48.686;9.170;2023-07-28T14:30:41;3.97;;;2.80;;
39620;SDS011;25309;48.686;9.170;2023-07-28T14:33:12;4.47;;;3.00;;
39620;SDS011;25309;48.686;9.170;2023-07-28T14:35:40;4.40;;;3.03;;
39620;SDS011;25309;48.686;9.170;2023-07-28T14:38:08;4.10;;;2.80;;
39620;SDS011;25309;48.686;9.170;2023-07-28T14:40:35;3.67;;;3.00;;
39620;SDS011;25309;48.686;9.170;2023-07-28T14:43:03;5.03;;;2.90;;
39620;SDS011;25309;48.686;9.170;2023-07-28T14:45:31;4.37;;;2.90;;
39620;SDS011;25309;48.686;9.170;2023-07-28T14:47:58;4.57;;;2.73;;
39620;SDS011;25309;48.686;9.170;2023-07-28T14:50:26;3.70;;;2.70;;
39620;SDS011;25309;48.686;9.170;2023-07-28T14:52:57;4.33;;;2.83;;
39620;SDS011;25309;48.686;9.170;2023-07-28T14:55:24;4.13;;;2.60;;
39620;SDS011;25309;48.686;9.170;2023-07-28T14:57:51;4.90;;;2.90;;
39620;SDS011;25309;48.686;9.170;2023-07-28T15:00:18;3.60;;;2.87;;
39620;SDS011;25309;48.686;9.170;2023-07-28T15:02:46;3.80;;;2.73;;